Map

Track Data

SID SEASON NUMBER BASIN SUBBASIN NAME ISO_TIME NATURE LAT LON WMO_WIND WMO_PRES WMO_AGENCY TRACK_TYPE DIST2LAND LANDFALL IFLAG USA_AGENCY USA_ATCF_ID USA_LAT USA_LON USA_RECORD USA_STATUS USA_WIND USA_PRES USA_SSHS USA_R34_NE USA_R34_SE USA_R34_SW USA_R34_NW USA_R50_NE USA_R50_SE USA_R50_SW USA_R50_NW USA_R64_NE USA_R64_SE USA_R64_SW USA_R64_NW USA_POCI USA_ROCI USA_RMW USA_EYE TOKYO_LAT TOKYO_LON TOKYO_GRADE TOKYO_WIND TOKYO_PRES TOKYO_R50_DIR TOKYO_R50_LONG TOKYO_R50_SHORT TOKYO_R30_DIR TOKYO_R30_LONG TOKYO_R30_SHORT TOKYO_LAND CMA_LAT CMA_LON CMA_CAT CMA_WIND CMA_PRES HKO_LAT HKO_LON HKO_CAT HKO_WIND HKO_PRES NEWDELHI_LAT NEWDELHI_LON NEWDELHI_GRADE NEWDELHI_WIND NEWDELHI_PRES NEWDELHI_CI NEWDELHI_DP NEWDELHI_POCI REUNION_LAT REUNION_LON REUNION_TYPE REUNION_WIND REUNION_PRES REUNION_TNUM REUNION_CI REUNION_RMW REUNION_R34_NE REUNION_R34_SE REUNION_R34_SW REUNION_R34_NW REUNION_R50_NE REUNION_R50_SE REUNION_R50_SW REUNION_R50_NW REUNION_R64_NE REUNION_R64_SE REUNION_R64_SW REUNION_R64_NW BOM_LAT BOM_LON BOM_TYPE BOM_WIND BOM_PRES BOM_TNUM BOM_CI BOM_RMW BOM_R34_NE BOM_R34_SE BOM_R34_SW BOM_R34_NW BOM_R50_NE BOM_R50_SE BOM_R50_SW BOM_R50_NW BOM_R64_NE BOM_R64_SE BOM_R64_SW BOM_R64_NW BOM_ROCI BOM_POCI BOM_EYE BOM_POS_METHOD BOM_PRES_METHOD NADI_LAT NADI_LON NADI_CAT NADI_WIND NADI_PRES WELLINGTON_LAT WELLINGTON_LON WELLINGTON_WIND WELLINGTON_PRES DS824_LAT DS824_LON DS824_STAGE DS824_WIND DS824_PRES TD9636_LAT TD9636_LON TD9636_STAGE TD9636_WIND TD9636_PRES TD9635_LAT TD9635_LON TD9635_WIND TD9635_PRES TD9635_ROCI NEUMANN_LAT NEUMANN_LON NEUMANN_CLASS NEUMANN_WIND NEUMANN_PRES MLC_LAT MLC_LON MLC_CLASS MLC_WIND MLC_PRES USA_GUST BOM_GUST BOM_GUST_PER REUNION_GUST REUNION_GUST_PER USA_SEAHGT USA_SEARAD_NE USA_SEARAD_SE USA_SEARAD_SW USA_SEARAD_NW STORM_SPEED STORM_DIR
1972331S08062 1973 130 SI MM ARIANE 1972-11-26 06:00:00 TS -8.00000 62.0000 reunion main 1431 1382 O____O___OO_O_ jtwc_sh SH031973 -8.00000 62.0000 -1 -8.00000 62.0000 2 9.90000 -8.00000 62.0000 TC 25 -8.00000 62.0000 7 -8.00000 62.0000 TC 25 10 263
1972331S08062 1973 130 SI MM ARIANE 1972-11-26 09:00:00 TS -8.06138 61.4847 main 1382 1332 P____P___PP_P_ SH031973 -8.09524 61.3676 -1 -8.01249 61.6276 2 -8.09524 61.3676 TC 25 -8.09145 61.4331 7 -8.01249 61.6276 TC 25 10 263
1972331S08062 1973 130 SI MM ARIANE 1972-11-26 12:00:00 TS -8.11919 60.9786 reunion main 1332 1277 O____O___OP_O_ jtwc_sh SH031973 -8.20000 60.8000 -1 -8.00000 61.2000 99 9.90000 -8.20000 60.8000 TC 25 -8.19595 60.8928 7 -8.00000 61.2000 TC 25 10 263
1972331S08062 1973 130 SI MM ARIANE 1972-11-26 15:00:00 TS -8.18148 60.4972 main 1277 1233 P____P___PP_P_ SH031973 -8.32741 60.3475 -1 -7.96256 60.6924 99 -8.32741 60.3475 TC 25 -8.32744 60.4062 7 -7.96256 60.6924 TC 25 9 259
1972331S08062 1973 130 SI MM ARIANE 1972-11-26 18:00:00 TS -8.30000 60.0800 reunion main 1233 1193 O____O___OO_O_ jtwc_sh SH031973 -8.50000 60.0000 -1 -8.00000 60.2000 99 9.90000 -8.50000 60.0000 TC 25 -8.50000 60.0000 7 -8.00000 60.2000 TC 25 8 245
1972331S08062 1973 130 SI MM ARIANE 1972-11-26 21:00:00 TS -8.51793 59.7540 main 1193 1149 P____P___PP_P_ SH031973 -8.71993 59.7274 -1 -8.21244 59.8126 99 -8.71993 59.7274 TC 25 -8.72490 59.6900 7 -8.21244 59.8126 TC 27 8 229
1972331S08062 1973 130 SI MM ARIANE 1972-11-27 00:00:00 TS -8.80039 59.4894 reunion main 1149 1115 O____O___OP_O_ jtwc_sh SH031973 -9.00000 59.5000 -1 -8.50000 59.5000 99 9.90000 -9.00000 59.5000 TC 25 -9.00197 59.4470 7 -8.50000 59.5000 TC 30 8 222
1972331S08062 1973 130 SI MM ARIANE 1972-11-27 03:00:00 TS -9.08158 59.2460 main 1105 1071 P____P___PP_P_ SH031973 -9.31995 59.2649 -1 -8.71995 59.2349 99 -9.31995 59.2649 TC 25 -9.32808 59.2305 7 -8.71995 59.2349 TC 30 8 218
1972331S08062 1973 130 SI MM ARIANE 1972-11-27 06:00:00 TS -9.42000 59.0000 reunion main 1071 1024 O____O___OO_O_ jtwc_sh SH031973 -9.70000 59.0000 -1 -9.00000 59.0000 2 9.90000 -9.70000 59.0000 TC 25 -9.70000 59.0000 1 -9.00000 59.0000 TC 30 9 215
1972331S08062 1973 130 SI MM ARIANE 1972-11-27 09:00:00 TS -9.83984 58.6969 main 1024 974 P____P___PP_P_ SH031973 -10.1350 58.6575 -1 -9.40501 58.7425 2 -10.1350 58.6575 TC 25 -10.1191 58.6846 1 -9.40501 58.7425 TC 30 11 214
1972331S08062 1973 130 SI MM ARIANE 1972-11-27 12:00:00 TS -10.3155 58.3901 reunion main 974 926 O____O___OP_O_ jtwc_sh SH031973 -10.6000 58.3000 -1 -9.90000 58.5000 99 9.90000 -10.6000 58.3000 TC 25 -10.5776 58.3503 1 -9.90000 58.5000 TC 30 11 211
1972331S08062 1973 130 SI MM ARIANE 1972-11-27 15:00:00 TS -10.8064 58.1081 main 926 890 P____P___PP_P_ SH031973 -11.0650 57.9850 -1 -10.4275 58.2775 99 -11.0650 57.9850 TC 25 -11.0473 58.0158 1 -10.4275 58.2775 TC 30 11 208
1972331S08062 1973 130 SI MM ARIANE 1972-11-27 18:00:00 TS -11.3000 57.8600 reunion main 890 857 O____O___OO_O_ jtwc_sh SH031973 -11.5000 57.7000 -1 -11.0000 58.1000 99 9.90000 -11.5000 57.7000 TC 25 -11.5000 57.7000 1 -11.0000 58.1000 TC 30 10 204
1972331S08062 1973 130 SI MM ARIANE 1972-11-27 21:00:00 TS -11.7582 57.6749 main 854 821 P____P___PP_P_ SH031973 -11.8575 57.4423 -1 -11.5999 58.0370 99 -11.8575 57.4423 TC 25 -11.8761 57.4158 1 -11.5999 58.0370 TC 32 10 203
1972331S08062 1973 130 SI MM ARIANE 1972-11-28 00:00:00 TS -12.2070 57.4709 reunion main 821 779 O____O___OP_O_ jtwc_sh SH031973 -12.2000 57.2000 -1 -12.2000 57.9000 99 9.90000 -12.2000 57.2000 TC 25 -12.2349 57.1544 1 -12.2000 57.9000 TC 35 10 209
1972331S08062 1973 130 SI MM ARIANE 1972-11-28 03:00:00 TS -12.6693 57.1553 main 775 719 P____P___PP_P_ SH031973 -12.5775 56.9424 -1 -12.7952 57.4879 99 -12.5775 56.9424 TC 25 -12.6012 56.9159 1 -12.7952 57.4879 TC 37 11 215
1972331S08062 1973 130 SI MM ARIANE 1972-11-28 06:00:00 TS -13.1200 56.8200 reunion main 719 674 O____O___OO_O_ jtwc_sh SH031973 -13.0000 56.7000 -1 -13.3000 57.0000 3 9.90000 -13.0000 56.7000 TC 25 -13.0000 56.7000 1 -13.3000 57.0000 TC 40 11 214
1972331S08062 1973 130 SI MM ARIANE 1972-11-28 09:00:00 TS -13.5565 56.5302 main 670 641 P____P___PP_P_ SH031973 -13.4850 56.4850 -1 -13.6600 56.6049 3 -13.4850 56.4850 TC 25 -13.4925 56.4713 1 -13.6600 56.6049 TC 42 10 211
1972331S08062 1973 130 SI MM ARIANE 1972-11-28 12:00:00 TS -13.9630 56.2936 reunion main 638 610 O____O___OP_O_ jtwc_sh SH031973 -14.0000 56.3000 -1 -13.9000 56.3000 99 9.90000 -14.0000 56.3000 TC 25 -14.0150 56.2680 1 -13.9000 56.3000 TC 45 9 208
1972331S08062 1973 130 SI MM ARIANE 1972-11-28 15:00:00 TS -14.3230 56.1141 main 610 593 P____P___PP_P_ SH031973 -14.5225 56.1275 -1 -14.0199 56.1048 99 -14.5225 56.1275 TC 25 -14.5300 56.1057 1 -14.0199 56.1048 TC 50 8 202
1972331S08062 1973 130 SI MM ARIANE 1972-11-28 18:00:00 TS -14.6800 56.0000 reunion main 593 579 O____O___OO_O_ jtwc_sh SH031973 -15.0000 56.0000 -1 -14.2000 56.0000 99 9.90000 -15.0000 56.0000 TC 25 -15.0000 56.0000 1 -14.2000 56.0000 TC 55 8 194
1972331S08062 1973 130 SI MM ARIANE 1972-11-28 21:00:00 TS -15.0969 55.9224 main 579 541 P____P___PP_P_ SH031973 -15.3800 55.9125 -1 -14.6625 55.9201 99 -15.3800 55.9125 TC 25 -15.3995 55.9468 1 -14.6625 55.9201 TC 57 8 186
1972331S08062 1973 130 SI MM ARIANE 1972-11-29 00:00:00 TS -15.5095 55.9104 reunion main 541 506 O____O___OP_O_ jtwc_sh SH031973 -15.7000 55.9000 -1 -15.2000 55.9000 99 9.90000 -15.7000 55.9000 TC 25 -15.7473 55.9520 1 -15.2000 55.9000 TC 60 8 177
1972331S08062 1973 130 SI MM ARIANE 1972-11-29 03:00:00 TS -15.8643 55.9602 main 495 460 P____P___PP_P_ SH031973 -16.0300 55.9699 -1 -15.6075 55.9275 99 -16.0300 55.9699 TC 30 -16.0464 56.0063 1 -15.6075 55.9275 TC 60 7 168
1972331S08062 1973 130 SI MM ARIANE 1972-11-29 06:00:00 TS -16.1800 56.0600 reunion main 460 425 O____O___OO_O_ jtwc_sh SH031973 -16.3000 56.1000 -1 -16.0000 56.0000 4 9.90000 -16.3000 56.1000 TC 35 -16.3000 56.1000 2 -16.0000 56.0000 TC 60 6 162
1972331S08062 1973 130 SI MM ARIANE 1972-11-29 09:00:00 TS -16.4715 56.1625 main 425 400 P____P___PP_P_ SH031973 -16.4650 56.2426 -1 -16.4649 56.0626 4 -16.4650 56.2426 TC 35 -16.4978 56.2021 2 -16.4649 56.0626 TC 62 6 157
1972331S08062 1973 130 SI MM ARIANE 1972-11-29 12:00:00 TS -16.7315 56.3081 reunion main 400 362 O____O___OP_O_ jtwc_sh SH031973 -16.6000 56.4000 -1 -16.9000 56.2000 99 9.90000 -16.6000 56.4000 TC 35 -16.6574 56.3404 2 -16.9000 56.2000 TC 65 6 146
1972331S08062 1973 130 SI MM ARIANE 1972-11-29 15:00:00 TS -16.9657 56.5157 main 362 335 P____P___PP_P_ SH031973 -16.7775 56.5426 -1 -17.2301 56.4924 99 -16.7775 56.5426 TC 35 -16.8134 56.5085 2 -17.2301 56.4924 TC 67 6 139
1972331S08062 1973 130 SI MM ARIANE 1972-11-29 18:00:00 TS -17.2000 56.7400 reunion main 335 297 O____O___OO_O_ jtwc_sh SH031973 -17.0000 56.7000 -1 -17.5000 56.8000 99 9.90000 -17.0000 56.7000 TC 35 -17.0000 56.7000 2 -17.5000 56.8000 TC 70 6 144
1972331S08062 1973 130 SI MM ARIANE 1972-11-29 21:00:00 TS -17.4819 56.9031 main 297 271 P____P___PP_P_ SH031973 -17.2850 56.8850 -1 -17.7798 56.9352 99 -17.2850 56.8850 TC 35 -17.2801 56.8750 2 -17.7798 56.9352 TC 67 7 149
1972331S08062 1973 130 SI MM ARIANE 1972-11-30 00:00:00 TS -17.7584 57.0950 reunion main 260 235 O____O___OP_O_ jtwc_sh SH031973 -17.6000 57.1000 -1 -18.0000 57.1000 99 9.90000 -17.6000 57.1000 TC 35 -17.5921 57.0751 2 -18.0000 57.1000 TC 65 7 138
1972331S08062 1973 130 SI MM ARIANE 1972-11-30 03:00:00 TS -17.9816 57.3697 main 235 212 P____P___PP_P_ SH031973 -17.9149 57.3201 -1 -18.0850 57.4479 99 -17.9149 57.3201 TC 50 -17.9081 57.3126 2 -18.0850 57.4479 TC 62 7 127
1972331S08062 1973 130 SI MM ARIANE 1972-11-30 06:00:00 TS -18.2000 57.7200 reunion main 212 192 O____O___OO_O_ jtwc_sh SH031973 -18.2000 57.6000 -1 -18.2000 57.9000 4 9.90000 -18.2000 57.6000 TC 65 -18.2000 57.6000 4 -18.2000 57.9000 TC 60 9 124
1972331S08062 1973 130 SI MM ARIANE 1972-11-30 09:00:00 TS -18.4645 58.1373 main 183 177 P____P___PP_P_ SH031973 -18.4150 57.9776 -1 -18.5500 58.3845 4 -18.4150 57.9776 TC 65 -18.3925 57.9625 4 -18.5500 58.3845 TC 60 10 122
1972331S08062 1973 130 SI MM ARIANE 1972-11-30 12:00:00 TS -18.7126 58.5942 reunion main 182 179 O____O___OP_O_ jtwc_sh SH031973 -18.6000 58.4000 -1 -18.9000 58.9000 99 9.90000 -18.6000 58.4000 TC 65 -18.5630 58.3711 4 -18.9000 58.9000 TC 60 9 115
1972331S08062 1973 130 SI MM ARIANE 1972-11-30 15:00:00 TS -18.8522 59.0273 main 191 191 P____P___PP_P_ SH031973 -18.7623 58.7855 -1 -18.9922 59.3859 99 -18.7623 58.7855 TC 65 -18.7519 58.7940 4 -18.9922 59.3859 TC 60 9 111
1972331S08062 1973 130 SI MM ARIANE 1972-11-30 18:00:00 TS -19.0400 59.4800 reunion main 225 219 O____O___OO_O_ jtwc_sh SH031973 -19.0000 59.2000 -1 -19.1000 59.9000 99 9.90000 -19.0000 59.2000 TC 65 -19.0000 59.2000 4 -19.1000 59.9000 TC 60 11 121
1972331S08062 1973 130 SI MM ARIANE 1972-11-30 21:00:00 TS -19.4294 60.0409 main 251 251 P____P___PP_P_ SH031973 -19.4203 59.7369 -1 -19.4404 60.5444 99 -19.4203 59.7369 TC 50 -19.4254 59.6423 4 -19.4404 60.5444 TC 60 13 131
1972331S08062 1973 130 SI MM ARIANE 1972-12-01 00:00:00 TS -19.9005 60.5300 reunion main 285 285 O____O___OP_O_ jtwc_sh SH031973 -19.9000 60.2000 -1 -19.9000 61.1000 99 9.90000 -19.9000 60.2000 TC 35 -19.9026 60.0500 4 -19.9000 61.1000 TC 60 12 143
1972331S08062 1973 130 SI MM ARIANE 1972-12-01 03:00:00 TS -20.3954 60.8188 main 312 312 P____P___PP_P_ SH031973 -20.3597 60.4627 -1 -20.4522 61.4051 99 -20.3597 60.4627 TC 35 -20.3534 60.3581 4 -20.4522 61.4051 TC 57 10 158
1972331S08062 1973 130 SI MM ARIANE 1972-12-01 06:00:00 TS -20.7800 60.9000 reunion main 327 309 O____O___OO_O_ jtwc_sh SH031973 -20.7000 60.5000 -1 -20.9000 61.5000 3 9.90000 -20.7000 60.5000 TC 35 -20.7000 60.5000 2 -20.9000 61.5000 TC 55 5 192
1972331S08062 1973 130 SI MM ARIANE 1972-12-01 09:00:00 TS -20.8849 60.7089 main 309 278 P____P___PP_P_ SH031973 -20.8100 60.3176 -1 -21.0451 61.4399 3 -20.8100 60.3176 TC 35 -20.8359 60.3984 2 -21.0451 61.4399 TC 47 5 260
1972331S08062 1973 130 SI MM ARIANE 1972-12-01 12:00:00 TS -20.8657 60.3577 reunion main 278 235 O____O___OP_O_ jtwc_sh SH031973 -20.8000 60.0000 -1 -21.0000 61.3000 99 9.90000 -20.8000 60.0000 TC 35 -20.8627 60.1307 2 -21.0000 61.3000 TC 40 7 273
1972331S08062 1973 130 SI MM ARIANE 1972-12-01 15:00:00 TS -20.8462 59.9411 main 225 175 P________PP___ SH031973 -20.8000 59.6999 -1 99 -20.8000 59.6999 TC 35 -20.8330 59.7727 2 TC 9 274
1972331S08062 1973 130 SI MM ARIANE 1972-12-01 18:00:00 TS -20.8000 59.4000 reunion main 175 156 O________OO___ jtwc_sh SH031973 -20.8000 59.4000 -1 -20.8000 59.4000 TC 35 -20.8000 59.4000 2 7 271
1972331S08062 1973 130 SI MM ARIANE 1972-12-01 21:00:00 TS -20.8316 59.1483 main 146 132 P________PP___ SH031973 -20.8424 59.1500 -1 -20.8424 59.1500 TC 30 -20.8099 59.1447 2 5 261
1972331S08062 1973 130 SI MM ARIANE 1972-12-02 00:00:00 TS -20.8773 58.8955 reunion main 132 103 O________OP___ jtwc_sh SH031973 -20.9000 58.9000 -1 -20.9000 58.9000 TC 25 -20.8319 58.8865 2 5 261
1972331S08062 1973 130 SI MM ARIANE 1972-12-02 03:00:00 TS -20.9143 58.6133 main 103 83 P________PP___ SH031973 -20.9274 58.6148 -1 -20.9274 58.6148 TC 25 -20.8880 58.6101 2 6 258
1972331S08062 1973 130 SI MM ARIANE 1972-12-02 06:00:00 TS -21.0000 58.3000 reunion main 83 73 O________OO___ jtwc_sh SH031973 -21.0000 58.3000 -1 -21.0000 58.3000 TC 25 -21.0000 58.3000 1 7 247
1972331S08062 1973 130 SI MM ARIANE 1972-12-02 09:00:00 TS -21.1692 57.9632 main 84 78 P________PP___ SH031973 -21.1624 57.9724 -1 -21.1624 57.9724 TC 25 -21.1829 57.9450 1 8 239
1972331S08062 1973 130 SI MM ARIANE 1972-12-02 12:00:00 TS -21.4079 57.5840 reunion main 100 100 O________OP___ jtwc_sh SH031973 -21.4000 57.6000 -1 -21.4000 57.6000 TC 25 -21.4237 57.5521 1 9 235
1972331S08062 1973 130 SI MM ARIANE 1972-12-02 15:00:00 TS -21.6928 57.1563 main 134 121 P________PP___ SH031973 -21.6878 57.1680 -1 -21.6878 57.1680 TC 25 -21.7026 57.1331 1 10 234
1972331S08062 1973 130 SI MM ARIANE 1972-12-02 18:00:00 TS -22.0000 56.7000 reunion main 121 O________OO___ jtwc_sh SH031973 -22.0000 56.7000 -1 -22.0000 56.7000 TC 25 -22.0000 56.7000 6 10 234

About IBTrACS Database

This database is a web-friendly format of International Best Track Archive for Climate Stewardship (IBTrACS), a global best track data archive curated by NOAA dating back to 1842.

Updated: 2021-10-08